Berwyn, Canada
Current Conditions -  °F | °C
As of 1:00 PM on Wednesday 28 Jan 2015 (Local Time) from CYPE Reporting Station
Broken Clouds Broken Clouds  
Wind Chill: -10°   Ceiling: 25000
Heat Index:   Visibility: 15mi
Dew Point: -9°   Wind: 5mph
Humidity: 66%   Direction: 70°ENE
Pressure: 30.37"   Gusts: NA
Location:  56.15°N, 117.75°W
Report Text: CYPE 282000Z 07004KT 15SM FEW030 BKN250 M18/M23 A3037 RMK SC1CI4 SLP339
Loading
Personal Weather Stations






























Interactive Weather Map New forecast layout! Learn more

10-Day Weather Forecast

Advertisements
Track Severe Weather on mobile